createdAt,value
2018-05-13T00:01:56.811Z,183.27
2018-05-13T00:04:24.218Z,423.83
2018-05-13T00:06:50.899Z,374.40
2018-05-13T00:09:18.308Z,478.67
2018-05-13T00:11:44.996Z,410.67
2018-05-13T00:14:12.459Z,628.03
2018-05-13T00:16:39.884Z,436.13
2018-05-13T00:19:06.586Z,391.47
2018-05-13T00:21:33.281Z,179.77
2018-05-13T00:23:59.981Z,247.87
2018-05-13T00:26:26.683Z,282.67
2018-05-13T00:28:53.364Z,203.87
2018-05-13T00:31:20.103Z,168.50
2018-05-13T00:33:46.797Z,356.77
2018-05-13T00:36:13.472Z,198.63
2018-05-13T00:38:40.144Z,205.60
2018-05-13T00:41:06.831Z,365.80
2018-05-13T00:43:33.519Z,242.67
2018-05-13T00:46:00.199Z,389.73
2018-05-13T00:48:26.868Z,226.17
2018-05-13T00:50:53.559Z,178.70
2018-05-13T00:53:20.994Z,275.80
2018-05-13T00:55:47.681Z,266.97
2018-05-13T00:58:14.346Z,145.67
2018-05-13T01:00:41.049Z,148.23
2018-05-13T01:03:07.713Z,104.63
2018-05-13T01:05:34.414Z,89.83
2018-05-13T01:08:01.117Z,107.67
2018-05-13T01:10:27.800Z,303.93
2018-05-13T01:12:54.473Z,62.90
2018-05-13T01:15:21.151Z,157.73
2018-05-13T01:17:48.583Z,123.87
2018-05-13T01:20:15.260Z,135.53
2018-05-13T01:22:41.954Z,283.87
2018-05-13T01:25:08.624Z,513.20
2018-05-13T01:27:36.056Z,77.23
2018-05-13T01:30:02.827Z,392.00
2018-05-13T01:32:29.495Z,345.57
2018-05-13T01:34:56.168Z,335.13
2018-05-13T01:37:22.844Z,514.00
2018-05-13T01:39:49.512Z,245.13
2018-05-13T01:42:16.207Z,445.53
2018-05-13T01:44:42.871Z,516.87
2018-05-13T01:47:09.540Z,462.83
2018-05-13T01:49:36.196Z,324.63
2018-05-13T01:52:03.672Z,484.23
2018-05-13T01:54:34.904Z,587.67
2018-05-13T01:57:01.572Z,651.00
2018-05-13T01:59:28.251Z,520.73
2018-05-13T02:01:54.932Z,179.87
2018-05-13T02:04:22.369Z,134.77
2018-05-13T02:06:49.066Z,97.97
2018-05-13T02:09:15.743Z,491.23
2018-05-13T02:11:42.406Z,242.40
2018-05-13T02:14:09.827Z,124.40
2018-05-13T02:16:36.501Z,361.93
2018-05-13T02:19:03.924Z,305.17
2018-05-13T02:21:30.586Z,374.17
2018-05-13T02:23:57.994Z,250.27
2018-05-13T02:26:25.413Z,241.10
2018-05-13T02:28:52.097Z,208.17
2018-05-13T02:31:18.779Z,303.13
2018-05-13T02:33:46.189Z,203.40
2018-05-13T02:36:12.857Z,306.30
2018-05-13T02:38:39.539Z,358.10
2018-05-13T02:41:06.232Z,432.30
2018-05-13T02:43:32.912Z,158.90
2018-05-13T02:45:59.577Z,134.33
2018-05-13T02:48:26.257Z,332.70
2018-05-13T02:50:53.678Z,380.37
2018-05-13T02:53:21.126Z,108.47
2018-05-13T02:55:47.794Z,296.47
2018-05-13T02:58:14.471Z,461.07
2018-05-13T03:00:41.154Z,938.53
2018-05-13T03:03:07.864Z,586.07
2018-05-13T03:05:35.324Z,406.40
2018-05-13T03:08:02.756Z,136.67
2018-05-13T03:10:29.435Z,427.20
2018-05-13T03:12:56.142Z,152.37
2018-05-13T03:15:22.832Z,227.63
2018-05-13T03:17:49.504Z,74.27
2018-05-13T03:20:16.925Z,154.53
2018-05-13T03:22:43.594Z,77.47
2018-05-13T03:25:11.000Z,137.17
2018-05-13T03:27:37.679Z,186.43
2018-05-13T03:30:05.107Z,499.43
2018-05-13T03:32:31.784Z,577.80
2018-05-13T03:34:58.474Z,61.80
2018-05-13T03:37:25.172Z,157.00
2018-05-13T03:39:51.867Z,410.13
2018-05-13T03:42:18.552Z,65.10
2018-05-13T03:44:45.244Z,96.77
2018-05-13T03:47:11.950Z,66.50
2018-05-13T03:49:38.619Z,59.03
2018-05-13T03:52:05.305Z,88.80
2018-05-13T03:54:34.386Z,254.80
2018-05-13T03:57:01.059Z,548.50
2018-05-13T03:59:27.734Z,525.47
2018-05-13T04:01:54.411Z,321.63
2018-05-13T04:04:21.155Z,152.73
2018-05-13T04:06:48.681Z,647.97
2018-05-13T04:09:36.111Z,446.93
2018-05-13T04:12:21.914Z,427.20
2018-05-13T04:15:07.172Z,537.77
2018-05-13T04:17:35.447Z,616.30
2018-05-13T04:20:03.614Z,707.63
2018-05-13T04:22:31.027Z,304.53
2018-05-13T04:24:57.694Z,480.70
2018-05-13T04:27:24.376Z,587.60
2018-05-13T04:29:51.037Z,615.13
2018-05-13T04:32:17.712Z,338.43
2018-05-13T04:34:44.387Z,334.13
2018-05-13T04:37:11.065Z,328.47
2018-05-13T04:39:37.816Z,144.60
2018-05-13T04:42:04.449Z,143.67
2018-05-13T04:44:31.127Z,174.70
2018-05-13T04:46:58.544Z,67.00
2018-05-13T04:49:25.217Z,82.47
2018-05-13T04:51:52.627Z,124.33
2018-05-13T04:54:19.319Z,142.57
2018-05-13T04:56:46.026Z,69.67
2018-05-13T04:59:12.749Z,99.40
2018-05-13T05:01:39.438Z,57.40
2018-05-13T05:04:06.111Z,47.77
2018-05-13T05:06:32.796Z,46.27
2018-05-13T05:09:00.236Z,46.37
2018-05-13T05:11:26.923Z,44.27
2018-05-13T05:13:53.596Z,46.97
2018-05-13T05:16:20.259Z,50.47
2018-05-13T05:18:47.703Z,38.73
2018-05-13T05:21:14.389Z,43.63
2018-05-13T05:23:41.064Z,36.60
2018-05-13T05:26:07.754Z,34.53
2018-05-13T05:28:34.446Z,36.07
2018-05-13T05:31:01.139Z,30.00
2018-05-13T05:33:27.816Z,29.33
2018-05-13T05:35:54.544Z,34.53
2018-05-13T05:38:21.211Z,30.57
2018-05-13T05:40:47.896Z,30.20
2018-05-13T05:43:14.628Z,33.50
2018-05-13T05:45:41.299Z,26.83
2018-05-13T05:48:07.971Z,27.90
2018-05-13T05:50:34.643Z,31.53
2018-05-13T05:53:01.364Z,29.57
2018-05-13T05:55:28.792Z,29.10
2018-05-13T05:57:55.797Z,29.83
2018-05-13T06:00:22.496Z,25.17
2018-05-13T06:02:49.936Z,29.00
2018-05-13T06:05:16.619Z,29.57
2018-05-13T06:07:43.297Z,26.93
2018-05-13T06:10:10.004Z,22.23
2018-05-13T06:12:36.683Z,24.13
2018-05-13T06:15:03.420Z,28.87
2018-05-13T06:17:30.103Z,22.63
2018-05-13T06:19:56.804Z,28.03
2018-05-13T06:22:23.479Z,23.40
2018-05-13T06:24:50.163Z,20.53
2018-05-13T06:27:16.884Z,21.23
2018-05-13T06:29:43.544Z,28.17
2018-05-13T06:32:10.251Z,23.30
2018-05-13T06:34:36.956Z,24.70
2018-05-13T06:37:04.427Z,21.50
2018-05-13T06:39:31.148Z,25.23
2018-05-13T06:41:58.575Z,24.33
2018-05-13T06:44:25.279Z,22.73
2018-05-13T06:46:52.011Z,22.93
2018-05-13T06:49:18.711Z,21.90
2018-05-13T06:51:45.431Z,23.40
2018-05-13T06:54:12.111Z,23.80
2018-05-13T06:56:39.586Z,22.13
2018-05-13T06:59:06.271Z,26.70
2018-05-13T07:01:32.967Z,23.97
2018-05-13T07:03:59.669Z,23.67
2018-05-13T07:06:27.109Z,22.33
2018-05-13T07:08:53.799Z,24.93
2018-05-13T07:11:20.493Z,26.40
2018-05-13T07:13:47.157Z,22.50
2018-05-13T07:16:14.571Z,20.20
2018-05-13T07:18:41.248Z,23.03
2018-05-13T07:21:08.667Z,23.80
2018-05-13T07:23:36.096Z,27.17
2018-05-13T07:26:02.775Z,24.90
2018-05-13T07:28:29.487Z,24.37
2018-05-13T07:30:56.179Z,23.23
2018-05-13T07:33:22.849Z,27.90
2018-05-13T07:35:49.556Z,23.37
2018-05-13T07:38:16.257Z,21.83
2018-05-13T07:40:42.948Z,19.30
2018-05-13T07:43:09.624Z,20.40
2018-05-13T07:45:36.305Z,28.17
2018-05-13T07:48:03.014Z,15.43
2018-05-13T07:50:29.725Z,16.50
2018-05-13T07:52:56.459Z,24.83
2018-05-13T07:55:23.154Z,16.20
2018-05-13T07:57:50.602Z,19.17
2018-05-13T08:00:18.066Z,17.87
2018-05-13T08:02:45.507Z,17.70
2018-05-13T08:05:12.212Z,16.63
2018-05-13T08:07:38.931Z,16.80
2018-05-13T08:10:05.665Z,17.53
2018-05-13T08:12:32.352Z,15.50
2018-05-13T08:14:59.045Z,14.67
2018-05-13T08:17:25.752Z,12.77
2018-05-13T08:19:53.207Z,13.87
2018-05-13T08:22:20.667Z,15.43
2018-05-13T08:24:48.150Z,11.50
2018-05-13T08:27:14.859Z,15.37
2018-05-13T08:29:42.312Z,14.83
2018-05-13T08:32:09.739Z,15.63
2018-05-13T08:34:36.425Z,15.67
2018-05-13T08:37:03.146Z,10.80
2018-05-13T08:39:30.572Z,14.03
2018-05-13T08:41:57.275Z,14.10
2018-05-13T08:44:23.998Z,14.10
2018-05-13T08:46:50.694Z,15.40
2018-05-13T08:49:17.407Z,13.63
2018-05-13T08:51:44.094Z,13.63
2018-05-13T08:54:11.520Z,11.83
2018-05-13T08:56:38.205Z,13.03
2018-05-13T08:59:05.655Z,12.00
2018-05-13T09:01:33.084Z,10.83
2018-05-13T09:03:59.805Z,9.80
2018-05-13T09:06:26.481Z,10.83
2018-05-13T09:08:53.208Z,11.37
2018-05-13T09:11:19.947Z,10.53
2018-05-13T09:13:46.634Z,14.50
2018-05-13T09:16:13.400Z,11.60
2018-05-13T09:18:40.151Z,13.63
2018-05-13T09:21:06.834Z,12.60
2018-05-13T09:23:33.522Z,11.67
2018-05-13T09:26:00.219Z,9.50
2018-05-13T09:28:26.960Z,9.73
2018-05-13T09:30:53.701Z,10.73
2018-05-13T09:33:20.399Z,13.03
2018-05-13T09:35:47.122Z,11.63
2018-05-13T09:38:13.939Z,10.97
2018-05-13T09:40:40.554Z,11.43
2018-05-13T09:43:07.254Z,10.47
2018-05-13T09:45:33.965Z,8.60
2018-05-13T09:48:00.673Z,10.37
2018-05-13T09:50:27.384Z,7.20
2018-05-13T09:52:54.868Z,7.47
2018-05-13T09:55:21.595Z,7.77
2018-05-13T09:58:16.012Z,8.83
2018-05-13T10:00:42.739Z,7.50
2018-05-13T10:03:09.510Z,8.63
2018-05-13T10:05:36.247Z,8.30
2018-05-13T10:08:03.044Z,8.07
2018-05-13T10:10:29.767Z,9.17
2018-05-13T10:12:57.257Z,8.93
2018-05-13T10:15:23.979Z,7.97
2018-05-13T10:17:50.720Z,5.57
2018-05-13T10:20:17.449Z,7.50
2018-05-13T10:22:44.159Z,7.80
2018-05-13T10:25:10.871Z,7.87
2018-05-13T10:27:37.582Z,7.30
2018-05-13T10:30:04.389Z,6.17
2018-05-13T10:32:31.091Z,5.07
2018-05-13T10:34:57.828Z,4.80
2018-05-13T10:37:24.551Z,4.63
2018-05-13T10:39:51.259Z,6.93
2018-05-13T10:42:18.752Z,8.00
2018-05-13T10:44:45.472Z,5.73
2018-05-13T10:47:12.192Z,5.43
2018-05-13T10:49:39.637Z,3.87
2018-05-13T10:52:06.397Z,9.25
2018-05-13T10:54:33.109Z,5.80
2018-05-13T10:57:00.254Z,6.23
2018-05-13T10:59:26.959Z,5.73
2018-05-13T11:01:53.695Z,4.57
2018-05-13T11:04:20.391Z,6.33
2018-05-13T11:06:47.874Z,5.63
2018-05-13T11:09:14.638Z,6.30
2018-05-13T11:11:41.357Z,5.47
2018-05-13T11:14:08.127Z,4.57
2018-05-13T11:16:34.814Z,5.68
2018-05-13T11:19:02.265Z,3.70
2018-05-13T11:21:29.957Z,5.33
2018-05-13T11:23:56.645Z,5.13
2018-05-13T11:26:23.385Z,5.35
2018-05-13T11:28:50.090Z,7.30
2018-05-13T11:31:16.827Z,7.23
2018-05-13T11:33:43.562Z,6.83
2018-05-13T11:36:10.240Z,5.53
2018-05-13T11:38:37.727Z,5.93
2018-05-13T11:41:05.152Z,4.50
2018-05-13T11:43:31.869Z,7.70
2018-05-13T11:45:58.652Z,6.20
2018-05-13T11:48:26.102Z,7.70
2018-05-13T11:50:53.567Z,8.70
2018-05-13T11:53:21.081Z,6.40
2018-05-13T11:55:47.787Z,8.23
2018-05-13T11:58:14.532Z,6.00
2018-05-13T12:00:41.283Z,5.63
2018-05-13T12:03:08.021Z,8.07
2018-05-13T12:05:34.709Z,5.30
2018-05-13T12:08:01.442Z,5.57
2018-05-13T12:10:28.147Z,5.00
2018-05-13T12:12:54.880Z,5.73
2018-05-13T12:15:21.567Z,7.67
2018-05-13T12:17:49.025Z,5.50
2018-05-13T12:20:16.493Z,8.23
2018-05-13T12:22:43.927Z,5.33
2018-05-13T12:25:10.626Z,6.77
2018-05-13T12:27:37.319Z,5.20
2018-05-13T12:30:04.857Z,5.67
2018-05-13T12:32:31.612Z,4.82
2018-05-13T12:34:59.317Z,6.15
2018-05-13T12:37:26.145Z,6.87
2018-05-13T12:39:53.245Z,4.73
2018-05-13T12:42:19.947Z,6.17
2018-05-13T12:44:46.654Z,5.68
2018-05-13T12:47:14.120Z,5.43
2018-05-13T12:49:40.894Z,8.67
2018-05-13T12:52:08.579Z,6.00
2018-05-13T12:54:35.306Z,7.10
2018-05-13T12:57:02.034Z,7.77
2018-05-13T12:59:28.752Z,6.87
2018-05-13T13:01:55.471Z,6.17
2018-05-13T13:04:22.934Z,4.90
2018-05-13T13:06:49.668Z,8.03
2018-05-13T13:09:17.145Z,6.87
2018-05-13T13:11:43.856Z,5.47
2018-05-13T13:14:11.320Z,8.17
2018-05-13T13:16:38.803Z,6.13
2018-05-13T13:19:06.297Z,4.87
2018-05-13T13:21:33.071Z,7.90
2018-05-13T13:24:00.506Z,5.30
2018-05-13T13:26:27.219Z,11.40
2018-05-13T13:28:53.983Z,7.17
2018-05-13T13:31:20.754Z,6.83
2018-05-13T13:33:47.457Z,5.43
2018-05-13T13:36:14.192Z,6.30
2018-05-13T13:38:41.017Z,5.70
2018-05-13T13:41:07.877Z,6.13
2018-05-13T13:43:34.559Z,10.37
2018-05-13T13:46:01.285Z,6.83
2018-05-13T13:48:28.740Z,6.30
2018-05-13T13:50:56.215Z,7.57
2018-05-13T13:53:22.936Z,5.10
2018-05-13T13:55:50.372Z,6.37
2018-05-13T13:58:17.146Z,4.97
2018-05-13T14:00:43.899Z,7.93
2018-05-13T14:03:10.604Z,6.60
2018-05-13T14:05:38.046Z,5.80
2018-05-13T14:08:05.564Z,6.30
2018-05-13T14:10:32.279Z,8.20
2018-05-13T14:12:58.992Z,9.87
2018-05-13T14:15:26.447Z,5.13
2018-05-13T14:17:53.132Z,5.45
2018-05-13T14:20:19.922Z,6.72
2018-05-13T14:22:46.634Z,4.43
2018-05-13T14:25:13.357Z,6.65
2018-05-13T14:27:40.833Z,5.30
2018-05-13T14:30:07.550Z,7.37
2018-05-13T14:32:34.279Z,4.83
2018-05-13T14:35:00.999Z,6.67
2018-05-13T14:37:28.427Z,6.13
2018-05-13T14:39:55.281Z,6.67
2018-05-13T14:42:21.882Z,5.87
2018-05-13T14:44:48.592Z,4.93
2018-05-13T14:47:16.099Z,5.18
2018-05-13T14:49:42.862Z,5.43
2018-05-13T14:52:10.367Z,5.87
2018-05-13T14:54:37.073Z,5.37
2018-05-13T14:57:03.845Z,4.53
2018-05-13T14:59:30.587Z,5.90
2018-05-13T15:01:57.377Z,10.33
2018-05-13T15:04:24.907Z,5.73
2018-05-13T15:06:51.685Z,6.23
2018-05-13T15:09:19.160Z,5.33
2018-05-13T15:11:45.916Z,5.93
2018-05-13T15:14:12.635Z,5.97
2018-05-13T15:16:39.369Z,7.70
2018-05-13T15:19:06.812Z,6.63
2018-05-13T15:21:34.263Z,5.18
2018-05-13T15:24:01.704Z,6.13
2018-05-13T15:26:28.416Z,5.47
2018-05-13T15:28:55.182Z,5.20
2018-05-13T15:31:21.833Z,5.57
2018-05-13T15:33:49.262Z,9.67
2018-05-13T15:36:15.979Z,6.30
2018-05-13T15:38:42.679Z,4.63
2018-05-13T15:41:10.232Z,6.27
2018-05-13T15:43:37.675Z,8.80
2018-05-13T15:46:04.431Z,8.47
2018-05-13T15:48:31.876Z,6.13
2018-05-13T15:50:59.402Z,5.17
2018-05-13T15:53:26.904Z,6.07
2018-05-13T15:55:54.344Z,8.17
2018-05-13T15:58:21.787Z,7.20
2018-05-13T16:00:48.480Z,6.00
2018-05-13T16:03:15.171Z,6.13
2018-05-13T16:05:41.866Z,7.03
2018-05-13T16:08:08.570Z,4.63
2018-05-13T16:10:35.316Z,8.50
2018-05-13T16:13:02.019Z,6.63
2018-05-13T16:15:28.867Z,6.13
2018-05-13T16:17:55.613Z,8.87
2018-05-13T16:20:23.097Z,5.60
2018-05-13T16:22:49.807Z,6.07
2018-05-13T16:25:16.506Z,6.27
2018-05-13T16:27:43.211Z,6.20
2018-05-13T16:30:10.144Z,8.97
2018-05-13T16:32:36.909Z,5.10
2018-05-13T16:35:03.759Z,7.57
2018-05-13T16:37:30.557Z,7.27
2018-05-13T16:39:58.141Z,6.50
2018-05-13T16:42:24.891Z,6.60
2018-05-13T16:44:51.654Z,5.67
2018-05-13T16:47:18.872Z,5.87
2018-05-13T16:49:45.603Z,6.30
2018-05-13T16:52:13.099Z,7.20
2018-05-13T16:54:39.832Z,7.27
2018-05-13T16:57:06.599Z,10.30
2018-05-13T16:59:33.304Z,7.37
2018-05-13T17:01:59.999Z,6.80
2018-05-13T17:04:26.697Z,8.43
2018-05-13T17:06:53.379Z,8.97
2018-05-13T17:09:20.227Z,10.07
2018-05-13T17:11:46.960Z,6.73
2018-05-13T17:14:14.411Z,7.60
2018-05-13T17:16:41.132Z,8.73
2018-05-13T17:19:07.856Z,7.17
2018-05-13T17:21:34.957Z,7.90
2018-05-13T17:24:02.415Z,9.50
2018-05-13T17:26:29.889Z,9.30
2018-05-13T17:28:56.591Z,8.27
2018-05-13T17:31:23.289Z,8.83
2018-05-13T17:33:50.106Z,7.90
2018-05-13T17:36:16.850Z,7.27
2018-05-13T17:38:43.545Z,7.60
2018-05-13T17:41:11.016Z,9.90
2018-05-13T17:43:37.769Z,11.80
2018-05-13T17:46:04.492Z,10.40
2018-05-13T17:48:31.959Z,8.57
2018-05-13T17:50:59.400Z,7.67
2018-05-13T17:53:26.968Z,6.90
2018-05-13T17:55:53.604Z,8.63
2018-05-13T17:58:21.135Z,9.00
2018-05-13T18:00:47.878Z,7.97
2018-05-13T18:03:14.553Z,10.13
2018-05-13T18:05:41.280Z,8.83
2018-05-13T18:08:08.734Z,10.40
2018-05-13T18:10:36.192Z,11.47
2018-05-13T18:13:03.667Z,9.40
2018-05-13T18:15:30.379Z,9.43
2018-05-13T18:17:57.137Z,8.63
2018-05-13T18:20:24.654Z,11.53
2018-05-13T18:22:51.379Z,10.40
2018-05-13T18:25:18.113Z,9.40
2018-05-13T18:27:44.845Z,8.40
2018-05-13T18:30:11.637Z,12.23
2018-05-13T18:32:39.111Z,8.27
2018-05-13T18:35:05.884Z,10.43
2018-05-13T18:37:32.607Z,9.93
2018-05-13T18:40:00.114Z,12.10
2018-05-13T18:42:27.693Z,8.40
2018-05-13T18:44:55.151Z,9.93
2018-05-13T18:47:22.599Z,7.87
2018-05-13T18:49:50.143Z,9.90
2018-05-13T18:52:16.839Z,7.80
2018-05-13T18:54:43.612Z,13.43
2018-05-13T18:57:10.396Z,9.77
2018-05-13T18:59:37.179Z,10.87
2018-05-13T19:02:04.027Z,9.57
2018-05-13T19:04:30.865Z,13.40
2018-05-13T19:06:57.711Z,12.40
2018-05-13T19:09:24.484Z,10.37
2018-05-13T19:11:52.004Z,9.03
2018-05-13T19:14:18.772Z,10.00
2018-05-13T19:16:45.554Z,13.83
2018-05-13T19:19:12.282Z,11.23
2018-05-13T19:21:39.786Z,12.13
2018-05-13T19:24:06.484Z,9.07
2018-05-13T19:26:33.185Z,11.23
2018-05-13T19:28:59.962Z,9.53
2018-05-13T19:31:26.680Z,9.77
2018-05-13T19:33:54.432Z,8.70
2018-05-13T19:36:21.197Z,9.10
2018-05-13T19:38:47.975Z,9.87
2018-05-13T19:41:14.747Z,10.97
2018-05-13T19:43:42.219Z,10.93
2018-05-13T19:46:09.694Z,9.83
2018-05-13T19:48:37.252Z,10.03
2018-05-13T19:51:03.985Z,9.77
2018-05-13T19:53:31.440Z,8.73
2018-05-13T19:55:59.818Z,8.20
2018-05-13T19:58:27.291Z,8.40
2018-05-13T20:00:54.009Z,8.43
2018-05-13T20:03:21.654Z,10.03
2018-05-13T20:05:48.354Z,8.97
2018-05-13T20:08:15.094Z,9.37
2018-05-13T20:10:41.816Z,9.97
2018-05-13T20:13:08.550Z,10.93
2018-05-13T20:15:35.310Z,9.37
2018-05-13T20:18:02.892Z,8.97
2018-05-13T20:20:29.592Z,9.80
2018-05-13T20:23:14.585Z,9.57
2018-05-13T20:25:42.051Z,9.33
2018-05-13T20:28:08.800Z,10.40
2018-05-13T20:30:35.522Z,11.23
2018-05-13T20:33:02.287Z,8.43
2018-05-13T20:35:29.000Z,11.90
2018-05-13T20:37:55.712Z,7.57
2018-05-13T20:40:22.419Z,10.30
2018-05-13T20:42:49.148Z,9.37
2018-05-13T20:45:16.627Z,9.63
2018-05-13T20:47:44.087Z,10.80
2018-05-13T20:50:11.719Z,10.37
2018-05-13T20:52:38.579Z,13.93
2018-05-13T20:55:06.060Z,8.43
2018-05-13T20:57:32.804Z,9.00
2018-05-13T20:59:59.527Z,9.30
2018-05-13T21:02:26.974Z,8.87
2018-05-13T21:04:54.449Z,8.93
2018-05-13T21:07:21.175Z,11.80
2018-05-13T21:09:48.814Z,8.60
2018-05-13T21:12:15.584Z,10.63
2018-05-13T21:14:42.321Z,10.33
2018-05-13T21:17:09.804Z,8.10
2018-05-13T21:19:36.528Z,11.73
2018-05-13T21:22:03.222Z,9.67
2018-05-13T21:24:29.996Z,8.17
2018-05-13T21:26:56.662Z,14.27
2018-05-13T21:29:23.364Z,10.70
2018-05-13T21:31:50.885Z,11.07
2018-05-13T21:34:17.594Z,9.27
2018-05-13T21:36:44.317Z,11.23
2018-05-13T21:39:11.052Z,9.60
2018-05-13T21:41:37.780Z,11.93
2018-05-13T21:44:05.284Z,11.67
2018-05-13T21:46:32.004Z,11.80
2018-05-13T21:48:58.740Z,13.23
2018-05-13T21:51:25.471Z,15.00
2018-05-13T21:53:52.181Z,11.60
2018-05-13T21:56:18.916Z,15.47
2018-05-13T21:58:45.619Z,15.10
2018-05-13T22:01:12.299Z,17.23
2018-05-13T22:03:38.976Z,17.20
2018-05-13T22:06:06.571Z,17.27
2018-05-13T22:08:34.063Z,18.97
2018-05-13T22:11:01.558Z,22.73
2018-05-13T22:13:28.276Z,16.80
2018-05-13T22:15:55.014Z,23.73
2018-05-13T22:18:21.699Z,23.10
2018-05-13T22:20:48.390Z,23.07
2018-05-13T22:23:15.144Z,22.57
2018-05-13T22:25:41.887Z,23.03
2018-05-13T22:28:08.544Z,27.03
2018-05-13T22:30:35.228Z,20.90
2018-05-13T22:33:01.909Z,24.17
2018-05-13T22:35:28.608Z,21.87
2018-05-13T22:37:56.066Z,21.90
2018-05-13T22:40:23.511Z,20.87
2018-05-13T22:42:50.229Z,24.10
2018-05-13T22:45:16.952Z,23.37
2018-05-13T22:47:43.707Z,21.70
2018-05-13T22:50:10.419Z,18.33
2018-05-13T22:52:37.212Z,24.40
2018-05-13T22:55:04.667Z,22.30
2018-05-13T22:57:32.119Z,24.83
2018-05-13T22:59:59.621Z,10.40
2018-05-13T23:02:26.361Z,9.13
2018-05-13T23:04:53.037Z,12.00
2018-05-13T23:07:19.775Z,14.00
2018-05-13T23:09:46.484Z,8.27
2018-05-13T23:12:13.194Z,8.63
2018-05-13T23:14:40.632Z,8.13
2018-05-13T23:17:08.064Z,8.83
2018-05-13T23:19:34.774Z,8.87
2018-05-13T23:22:01.486Z,10.90
2018-05-13T23:24:28.154Z,10.80
2018-05-13T23:26:54.859Z,10.40
2018-05-13T23:29:23.319Z,10.80
2018-05-13T23:31:50.781Z,8.40
2018-05-13T23:34:18.231Z,10.67
2018-05-13T23:36:44.934Z,9.73
2018-05-13T23:39:11.621Z,9.63
2018-05-13T23:41:39.104Z,9.43
2018-05-13T23:44:05.796Z,8.67
2018-05-13T23:46:32.480Z,8.10
2018-05-13T23:48:59.191Z,9.63
2018-05-13T23:51:26.679Z,8.53
2018-05-13T23:53:54.064Z,10.40
2018-05-13T23:56:20.779Z,11.53
2018-05-13T23:58:47.522Z,11.40
